Time;durP1;ratioP1;P1;durP2;ratioP2;P2;SDS_P1;SDS_P2;PMS_P1;PMS_P2;Temp;Humidity;BMP_temperature;BMP_pressure;BME280_temperature;BME280_humidity;BME280_pressure;Samples;Min_cycle;Max_cycle;Signal;HPM_P1;HPM_P2
2022/02/19 00:00:42;;;;;;;8.57;2.25;;;;;;;;;;4987003;28;20035;-73
2022/02/19 00:03:11;;;;;;;8.73;2.67;;;;;;;;;;4986688;28;20029;-74
2022/02/19 00:05:37;;;;;;;7.82;2.42;;;;;;;;;;4986671;28;20026;-73
2022/02/19 00:08:03;;;;;;;9.77;3.60;;;;;;;;;;4986877;28;20034;-73
2022/02/19 00:10:31;;;;;;;9.73;3.20;;;;;;;;;;4968451;28;20450;-74
2022/02/19 00:12:58;;;;;;;12.57;2.88;;;;;;;;;;4969287;28;20037;-74
2022/02/19 00:15:25;;;;;;;8.20;3.00;;;;;;;;;;4986534;28;20031;-74
2022/02/19 00:17:50;;;;;;;9.10;3.50;;;;;;;;;;4986215;28;20077;-74
2022/02/19 00:20:16;;;;;;;11.70;3.58;;;;;;;;;;4986648;28;20026;-74
2022/02/19 00:22:41;;;;;;;12.30;3.38;;;;;;;;;;4986515;28;20039;-73
2022/02/19 00:25:08;;;;;;;7.88;2.65;;;;;;;;;;4986626;28;20030;-73
2022/02/19 00:27:34;;;;;;;7.82;2.55;;;;;;;;;;4968807;28;20023;-73
2022/02/19 00:30:02;;;;;;;9.23;2.42;;;;;;;;;;4986446;28;20038;-73
2022/02/19 00:32:27;;;;;;;4.53;1.38;;;;;;;;;;4986478;28;20094;-72
2022/02/19 00:34:53;;;;;;;4.97;0.93;;;;;;;;;;4968849;28;20038;-73
2022/02/19 00:37:18;;;;;;;10.32;2.22;;;;;;;;;;4986131;28;20057;-73
2022/02/19 00:39:44;;;;;;;10.38;1.83;;;;;;;;;;4986367;28;20049;-74
2022/02/19 00:42:09;;;;;;;3.33;0.98;;;;;;;;;;4986124;28;20027;-72
2022/02/19 00:44:35;;;;;;;2.60;0.80;;;;;;;;;;4985970;28;20038;-73
2022/02/19 00:47:01;;;;;;;10.75;3.70;;;;;;;;;;4986443;28;20069;-74
2022/02/19 00:49:27;;;;;;;4.68;1.25;;;;;;;;;;4986284;28;20033;-73
2022/02/19 00:51:52;;;;;;;12.48;1.85;;;;;;;;;;4968297;28;20038;-73
2022/02/19 00:54:17;;;;;;;6.38;2.25;;;;;;;;;;4985741;28;20069;-74
2022/02/19 00:56:43;;;;;;;6.72;1.70;;;;;;;;;;4968387;28;20023;-74
2022/02/19 00:59:10;;;;;;;5.82;0.65;;;;;;;;;;4986016;28;20022;-74
2022/02/19 01:01:37;;;;;;;11.88;1.40;;;;;;;;;;4985766;28;20046;-74
2022/02/19 01:04:03;;;;;;;3.33;0.90;;;;;;;;;;4986059;28;20090;-73
2022/02/19 01:06:28;;;;;;;6.78;1.27;;;;;;;;;;4968154;28;20058;-75
2022/02/19 01:08:54;;;;;;;2.50;0.45;;;;;;;;;;4985480;28;20027;-74
2022/02/19 01:11:20;;;;;;;15.45;1.45;;;;;;;;;;4985725;28;20030;-74
2022/02/19 01:13:47;;;;;;;6.75;1.10;;;;;;;;;;4985646;28;20053;-74
2022/02/19 01:16:14;;;;;;;6.07;1.65;;;;;;;;;;4985390;28;20030;-75
2022/02/19 01:18:42;;;;;;;4.40;1.08;;;;;;;;;;4985248;28;20026;-74
2022/02/19 01:21:08;;;;;;;2.25;0.65;;;;;;;;;;4985218;28;20022;-74
2022/02/19 01:23:36;;;;;;;4.20;0.82;;;;;;;;;;4968014;28;20050;-74
2022/02/19 01:26:02;;;;;;;3.65;1.40;;;;;;;;;;4984905;28;20026;-74
2022/02/19 01:28:30;;;;;;;2.83;0.60;;;;;;;;;;4985469;28;20363;-73
2022/02/19 01:30:59;;;;;;;4.90;0.60;;;;;;;;;;4985449;28;20023;-74
2022/02/19 01:33:24;;;;;;;5.78;0.73;;;;;;;;;;4985547;28;20031;-74
2022/02/19 01:35:50;;;;;;;8.13;0.80;;;;;;;;;;4967862;28;20530;-73
2022/02/19 01:38:17;;;;;;;12.00;1.08;;;;;;;;;;4968089;28;20031;-74
2022/02/19 01:40:42;;;;;;;3.13;0.55;;;;;;;;;;4985278;28;20030;-73
2022/02/19 01:43:10;;;;;;;5.35;1.00;;;;;;;;;;4985241;28;20050;-74
2022/02/19 01:45:36;;;;;;;3.15;0.52;;;;;;;;;;4985193;28;20023;-74
2022/02/19 01:48:01;;;;;;;10.85;1.10;;;;;;;;;;4967704;28;20038;-73
2022/02/19 01:50:26;;;;;;;2.55;0.80;;;;;;;;;;4985089;28;20109;-73
2022/02/19 01:52:54;;;;;;;3.55;0.75;;;;;;;;;;4985027;28;20381;-73
2022/02/19 01:55:20;;;;;;;9.10;1.27;;;;;;;;;;4985005;28;20033;-72
2022/02/19 01:57:47;;;;;;;7.78;1.52;;;;;;;;;;4984765;28;20023;-73
2022/02/19 02:00:13;;;;;;;5.65;1.05;;;;;;;;;;4984836;28;20433;-73
2022/02/19 02:02:42;;;;;;;4.68;0.90;;;;;;;;;;4967204;28;20412;-73
2022/02/19 02:05:08;;;;;;;8.18;1.55;;;;;;;;;;4967449;28;20034;-72
2022/02/19 02:07:36;;;;;;;2.35;0.77;;;;;;;;;;4984742;28;20031;-74
2022/02/19 02:10:02;;;;;;;5.97;1.58;;;;;;;;;;4984817;28;20543;-72
2022/02/19 02:12:30;;;;;;;2.72;0.73;;;;;;;;;;4984789;28;20039;-74
2022/02/19 02:14:58;;;;;;;6.90;1.58;;;;;;;;;;4984868;28;20023;-74
2022/02/19 02:17:23;;;;;;;7.88;1.17;;;;;;;;;;4984610;28;20026;-72
2022/02/19 02:19:54;;;;;;;10.25;1.17;;;;;;;;;;4984784;28;20041;-73
2022/02/19 02:22:19;;;;;;;8.93;1.00;;;;;;;;;;4984842;28;20429;-74
2022/02/19 02:24:46;;;;;;;3.67;0.82;;;;;;;;;;4984927;28;20050;-74
2022/02/19 02:27:15;;;;;;;7.05;1.17;;;;;;;;;;4984593;28;20046;-73
2022/02/19 02:29:46;;;;;;;7.30;1.38;;;;;;;;;;4967284;28;20050;-72
2022/02/19 02:32:12;;;;;;;6.72;1.45;;;;;;;;;;4967421;28;20392;-73
2022/02/19 02:34:54;;;;;;;7.18;1.40;;;;;;;;;;4987696;28;20031;-72
2022/02/19 02:37:20;;;;;;;6.28;2.22;;;;;;;;;;4988780;28;20097;-72
2022/02/19 02:39:48;;;;;;;10.45;1.35;;;;;;;;;;4971045;28;20035;-72
2022/02/19 02:42:19;;;;;;;8.38;1.13;;;;;;;;;;4988426;28;20030;-73
2022/02/19 02:44:47;;;;;;;6.38;1.77;;;;;;;;;;4988534;28;20086;-72
2022/02/19 02:47:16;;;;;;;6.40;1.35;;;;;;;;;;4988334;28;20034;-72
2022/02/19 02:49:46;;;;;;;7.45;1.52;;;;;;;;;;4988443;28;20023;-72
2022/02/19 02:52:17;;;;;;;39.70;1.83;;;;;;;;;;4970755;28;20156;-72
2022/02/19 02:54:47;;;;;;;8.68;1.17;;;;;;;;;;4988425;28;20038;-72
2022/02/19 02:57:12;;;;;;;5.72;1.02;;;;;;;;;;4988186;28;20031;-72
2022/02/19 02:59:38;;;;;;;10.32;1.27;;;;;;;;;;4988286;28;20026;-74
2022/02/19 03:02:05;;;;;;;5.90;1.20;;;;;;;;;;4987904;28;20030;-72
2022/02/19 03:04:30;;;;;;;6.22;1.77;;;;;;;;;;4988167;28;20083;-71
2022/02/19 03:06:58;;;;;;;5.38;0.90;;;;;;;;;;4970627;28;20027;-72
2022/02/19 03:09:23;;;;;;;4.65;1.00;;;;;;;;;;4987789;28;20030;-73
2022/02/19 03:11:49;;;;;;;1.75;0.90;;;;;;;;;;4988200;28;20099;-72
2022/02/19 03:14:14;;;;;;;4.85;0.98;;;;;;;;;;4988048;28;20051;-73
2022/02/19 03:16:40;;;;;;;2.92;0.95;;;;;;;;;;4970142;28;20076;-73
2022/02/19 03:19:06;;;;;;;5.75;1.52;;;;;;;;;;4987893;28;20105;-73
2022/02/19 03:21:31;;;;;;;4.38;1.13;;;;;;;;;;4988041;28;20030;-71
2022/02/19 03:23:59;;;;;;;5.05;1.10;;;;;;;;;;4988033;28;20022;-72
2022/02/19 03:26:27;;;;;;;3.67;0.93;;;;;;;;;;4987501;28;20022;-72
2022/02/19 03:28:54;;;;;;;3.40;1.30;;;;;;;;;;4987723;28;20319;-72
2022/02/19 03:31:21;;;;;;;2.33;1.33;;;;;;;;;;4987454;28;20019;-72
2022/02/19 03:33:49;;;;;;;2.65;1.13;;;;;;;;;;4987600;28;20030;-72
2022/02/19 03:36:16;;;;;;;4.20;1.40;;;;;;;;;;4969819;28;20033;-72
2022/02/19 03:38:42;;;;;;;6.43;1.05;;;;;;;;;;4987284;28;20058;-72
2022/02/19 03:41:07;;;;;;;4.38;1.52;;;;;;;;;;4969877;28;20031;-72
2022/02/19 03:43:35;;;;;;;3.85;1.30;;;;;;;;;;4987568;28;20108;-73
2022/02/19 03:46:01;;;;;;;3.03;1.60;;;;;;;;;;4986406;28;20022;-73
2022/02/19 03:48:28;;;;;;;2.08;0.90;;;;;;;;;;4987436;28;20030;-71
2022/02/19 03:50:54;;;;;;;3.13;1.58;;;;;;;;;;4987177;28;20521;-72
2022/02/19 03:53:19;;;;;;;2.00;1.33;;;;;;;;;;4969936;28;20019;-72
2022/02/19 03:55:47;;;;;;;4.90;1.52;;;;;;;;;;4969458;28;20095;-72
2022/02/19 03:58:13;;;;;;;2.53;1.00;;;;;;;;;;4987063;28;20094;-72
2022/02/19 04:00:38;;;;;;;4.28;1.80;;;;;;;;;;4986980;28;20026;-72
2022/02/19 04:03:04;;;;;;;5.22;1.98;;;;;;;;;;4986809;28;20023;-72
2022/02/19 04:05:29;;;;;;;3.72;1.10;;;;;;;;;;4987156;28;20034;-72
2022/02/19 04:07:57;;;;;;;3.15;0.70;;;;;;;;;;4969377;28;20027;-72
2022/02/19 04:10:25;;;;;;;3.10;0.88;;;;;;;;;;4969242;28;20126;-72
2022/02/19 04:12:50;;;;;;;2.80;0.68;;;;;;;;;;4969308;28;20031;-71
2022/02/19 04:15:18;;;;;;;0.65;0.40;;;;;;;;;;4969538;28;20023;-74
2022/02/19 04:17:43;;;;;;;2.60;0.60;;;;;;;;;;4986344;28;20031;-74
2022/02/19 04:20:09;;;;;;;1.30;0.40;;;;;;;;;;4986826;28;20035;-72
2022/02/19 04:22:35;;;;;;;1.45;0.50;;;;;;;;;;4986472;28;20018;-72
2022/02/19 04:25:01;;;;;;;2.35;0.43;;;;;;;;;;4986491;28;20105;-73
2022/02/19 04:27:26;;;;;;;3.00;0.45;;;;;;;;;;4968972;28;20065;-73
2022/02/19 04:29:52;;;;;;;1.48;0.57;;;;;;;;;;4969152;28;20034;-73
2022/02/19 04:32:17;;;;;;;2.58;0.80;;;;;;;;;;4986454;28;20023;-73
2022/02/19 04:34:43;;;;;;;2.80;1.00;;;;;;;;;;4986744;28;20022;-73
2022/02/19 04:37:08;;;;;;;2.22;0.75;;;;;;;;;;4968905;28;20023;-73
2022/02/19 04:39:34;;;;;;;5.80;1.05;;;;;;;;;;4986269;28;20046;-73
2022/02/19 04:41:59;;;;;;;4.63;1.00;;;;;;;;;;4986146;28;20027;-73
2022/02/19 04:44:25;;;;;;;4.35;0.98;;;;;;;;;;4986296;28;20375;-73
2022/02/19 04:46:50;;;;;;;3.50;0.90;;;;;;;;;;4986273;28;20029;-75
2022/02/19 04:49:19;;;;;;;3.47;0.90;;;;;;;;;;4986503;28;20037;-74
2022/02/19 04:51:44;;;;;;;2.03;1.00;;;;;;;;;;4985898;28;20081;-73
2022/02/19 04:54:12;;;;;;;1.52;0.80;;;;;;;;;;4986188;28;20030;-74
2022/02/19 04:56:40;;;;;;;2.20;1.08;;;;;;;;;;4985475;28;20031;-75
2022/02/19 04:59:06;;;;;;;4.57;1.25;;;;;;;;;;4985908;28;20031;-73
2022/02/19 05:01:31;;;;;;;1.83;0.43;;;;;;;;;;4985712;28;20057;-74
2022/02/19 05:03:57;;;;;;;4.07;0.88;;;;;;;;;;4968481;28;20432;-74
2022/02/19 05:06:22;;;;;;;3.88;0.73;;;;;;;;;;4968087;28;20084;-74
2022/02/19 05:08:48;;;;;;;1.65;0.50;;;;;;;;;;4985499;28;20031;-73
2022/02/19 05:11:15;;;;;;;0.70;0.60;;;;;;;;;;4968211;28;20037;-73
2022/02/19 05:13:41;;;;;;;1.40;0.30;;;;;;;;;;4985651;28;20030;-73
2022/02/19 05:16:06;;;;;;;2.72;0.90;;;;;;;;;;4985631;28;20037;-73
2022/02/19 05:18:31;;;;;;;1.25;0.50;;;;;;;;;;4985536;28;20026;-73
2022/02/19 05:20:57;;;;;;;1.25;0.50;;;;;;;;;;4985600;28;20023;-73
2022/02/19 05:23:22;;;;;;;1.33;0.50;;;;;;;;;;4968046;28;20046;-73
2022/02/19 05:25:49;;;;;;;2.28;0.30;;;;;;;;;;4985094;28;20031;-73
2022/02/19 05:28:14;;;;;;;1.00;0.40;;;;;;;;;;4985637;28;20035;-73
2022/02/19 05:30:40;;;;;;;2.08;0.38;;;;;;;;;;4967881;28;20031;-73
2022/02/19 05:33:05;;;;;;;3.28;0.50;;;;;;;;;;4967792;28;20033;-73
2022/02/19 05:35:31;;;;;;;3.50;0.70;;;;;;;;;;4985409;28;20086;-73
2022/02/19 05:37:56;;;;;;;0.93;0.40;;;;;;;;;;4985169;28;20044;-73
2022/02/19 05:40:22;;;;;;;0.60;0.38;;;;;;;;;;4985482;28;20038;-72
2022/02/19 05:42:47;;;;;;;1.23;0.32;;;;;;;;;;4985145;28;20026;-73
2022/02/19 05:45:13;;;;;;;1.75;0.50;;;;;;;;;;4985256;28;20371;-73
2022/02/19 05:47:38;;;;;;;3.75;1.25;;;;;;;;;;4984950;28;20051;-73
2022/02/19 05:50:04;;;;;;;0.73;0.43;;;;;;;;;;4985229;28;20023;-73
2022/02/19 05:52:29;;;;;;;1.88;0.50;;;;;;;;;;4967478;28;20030;-73
2022/02/19 05:54:55;;;;;;;1.60;0.35;;;;;;;;;;4984974;28;20050;-74
2022/02/19 05:57:21;;;;;;;3.10;0.40;;;;;;;;;;4985155;28;20026;-73
2022/02/19 05:59:47;;;;;;;0.80;0.45;;;;;;;;;;4985428;28;20041;-74
2022/02/19 06:02:12;;;;;;;1.02;0.45;;;;;;;;;;4967603;28;20078;-74
2022/02/19 06:04:38;;;;;;;2.28;0.57;;;;;;;;;;4984952;28;20026;-74
2022/02/19 06:07:04;;;;;;;0.85;0.40;;;;;;;;;;4984892;28;20029;-74
2022/02/19 06:09:29;;;;;;;1.13;0.82;;;;;;;;;;4966687;28;20460;-74
2022/02/19 06:11:55;;;;;;;2.50;0.52;;;;;;;;;;4967405;28;20026;-74
2022/02/19 06:14:20;;;;;;;6.53;0.63;;;;;;;;;;4985112;28;20547;-74
2022/02/19 06:16:45;;;;;;;1.15;0.30;;;;;;;;;;4967437;28;20073;-74
2022/02/19 06:19:11;;;;;;;2.08;0.52;;;;;;;;;;4984968;28;20022;-74
2022/02/19 06:21:36;;;;;;;2.03;0.45;;;;;;;;;;4967294;28;20363;-74
2022/02/19 06:24:02;;;;;;;0.80;0.38;;;;;;;;;;4967522;28;20040;-75
2022/02/19 06:26:28;;;;;;;0.32;0.30;;;;;;;;;;4984680;28;20031;-75
2022/02/19 06:28:53;;;;;;;1.55;0.40;;;;;;;;;;4984755;28;20431;-74
2022/02/19 06:31:18;;;;;;;0.82;0.82;;;;;;;;;;4967196;28;20086;-74
2022/02/19 06:33:44;;;;;;;2.35;0.50;;;;;;;;;;4967357;28;20026;-74
2022/02/19 06:36:09;;;;;;;0.93;0.38;;;;;;;;;;4984793;28;20341;-74
2022/02/19 06:38:39;;;;;;;3.80;0.45;;;;;;;;;;4984541;28;20027;-73
2022/02/19 06:41:05;;;;;;;2.63;0.30;;;;;;;;;;4984685;28;20028;-73
2022/02/19 06:43:31;;;;;;;0.30;0.30;;;;;;;;;;4984573;28;20031;-74
2022/02/19 06:45:56;;;;;;;0.80;0.30;;;;;;;;;;4984590;28;20022;-74
2022/02/19 06:48:22;;;;;;;0.20;0.20;;;;;;;;;;4984591;28;20439;-73
2022/02/19 06:50:47;;;;;;;0.20;0.20;;;;;;;;;;4967119;28;20023;-74
2022/02/19 06:53:12;;;;;;;0.30;0.30;;;;;;;;;;4967199;28;20081;-74
2022/02/19 06:55:38;;;;;;;0.65;0.32;;;;;;;;;;4984388;28;20025;-74
2022/02/19 06:58:03;;;;;;;1.75;0.47;;;;;;;;;;4984061;28;20033;-74
2022/02/19 07:00:29;;;;;;;0.35;0.30;;;;;;;;;;4984515;28;20077;-74
2022/02/19 07:02:54;;;;;;;0.45;0.30;;;;;;;;;;4984550;28;20027;-74
2022/02/19 07:05:20;;;;;;;0.20;0.20;;;;;;;;;;4984431;28;20027;-74
2022/02/19 07:07:48;;;;;;;1.63;0.40;;;;;;;;;;4966833;28;20023;-75
2022/02/19 07:10:13;;;;;;;0.20;0.20;;;;;;;;;;4984139;28;20043;-74
2022/02/19 07:12:39;;;;;;;2.55;0.20;;;;;;;;;;4966727;28;20104;-74
2022/02/19 07:15:12;;;;;;;1.00;0.28;;;;;;;;;;4967112;28;20023;-73
2022/02/19 07:17:52;;;;;;;1.27;0.40;;;;;;;;;;4984320;28;20031;-74
2022/02/19 07:20:21;;;;;;;1.38;0.28;;;;;;;;;;4986439;28;20275;-74
2022/02/19 07:22:51;;;;;;;0.17;0.17;;;;;;;;;;4987708;28;20108;-74
2022/02/19 07:25:18;;;;;;;1.65;0.30;;;;;;;;;;4987697;28;20042;-74
2022/02/19 07:27:45;;;;;;;2.05;0.17;;;;;;;;;;4987603;28;20030;-73
2022/02/19 07:30:14;;;;;;;0.75;0.20;;;;;;;;;;4987855;28;20026;-75
2022/02/19 07:32:39;;;;;;;0.55;0.20;;;;;;;;;;4987224;28;20023;-74
2022/02/19 07:35:09;;;;;;;0.60;0.17;;;;;;;;;;4987377;28;20054;-73
2022/02/19 07:37:38;;;;;;;0.68;0.20;;;;;;;;;;4987860;28;20026;-72
2022/02/19 07:40:05;;;;;;;0.85;0.30;;;;;;;;;;4969603;28;20074;-73
2022/02/19 07:42:31;;;;;;;0.55;0.30;;;;;;;;;;4987154;28;20023;-73
2022/02/19 07:44:56;;;;;;;1.77;0.20;;;;;;;;;;4969978;28;20042;-72
2022/02/19 07:47:23;;;;;;;0.47;0.30;;;;;;;;;;4987264;28;20038;-73
2022/02/19 07:58:19;;;;;;;0.40;0.40;;;;;;;;;;4987302;28;20155;-75
2022/02/19 08:00:49;;;;;;;1.10;0.43;;;;;;;;;;4986845;28;20085;-72
2022/02/19 08:03:15;;;;;;;1.95;0.30;;;;;;;;;;4986917;28;20031;-72
2022/02/19 08:05:42;;;;;;;1.95;0.20;;;;;;;;;;4969089;28;20031;-72
2022/02/19 08:08:10;;;;;;;0.55;0.40;;;;;;;;;;4986659;28;20058;-72
2022/02/19 08:10:36;;;;;;;2.42;0.50;;;;;;;;;;4985140;28;20043;-74
2022/02/19 08:13:07;;;;;;;3.40;0.50;;;;;;;;;;4985133;28;20061;-73
2022/02/19 08:15:35;;;;;;;1.48;0.40;;;;;;;;;;4984914;28;20050;-74
2022/02/19 08:18:04;;;;;;;7.15;0.73;;;;;;;;;;4984912;28;20030;-72
2022/02/19 08:20:31;;;;;;;1.10;0.30;;;;;;;;;;4967473;28;20023;-73
2022/02/19 08:22:57;;;;;;;1.90;0.40;;;;;;;;;;4985120;28;20042;-72
2022/02/19 08:25:23;;;;;;;3.80;0.70;;;;;;;;;;4968646;28;20383;-72
2022/02/19 08:27:49;;;;;;;0.95;0.40;;;;;;;;;;4969035;28;20022;-73
2022/02/19 08:30:14;;;;;;;1.17;0.50;;;;;;;;;;4969076;28;20082;-73
2022/02/19 08:32:40;;;;;;;1.77;0.50;;;;;;;;;;4968213;28;20418;-73
2022/02/19 08:35:07;;;;;;;3.10;0.60;;;;;;;;;;4986527;28;20030;-74
2022/02/19 08:37:34;;;;;;;2.25;0.55;;;;;;;;;;4986312;28;20038;-73
2022/02/19 08:40:00;;;;;;;2.47;0.40;;;;;;;;;;4986193;28;20456;-73
2022/02/19 08:42:26;;;;;;;1.00;0.45;;;;;;;;;;4986084;28;20042;-73
2022/02/19 08:44:51;;;;;;;2.53;0.85;;;;;;;;;;4986369;28;20042;-73
2022/02/19 08:47:16;;;;;;;1.33;0.40;;;;;;;;;;4968692;28;20026;-73
2022/02/19 08:49:42;;;;;;;0.85;0.40;;;;;;;;;;4986277;28;20474;-74
2022/02/19 08:52:10;;;;;;;2.22;0.50;;;;;;;;;;4985936;28;20077;-73
2022/02/19 08:54:36;;;;;;;0.98;0.30;;;;;;;;;;4968592;28;20026;-73
2022/02/19 08:57:02;;;;;;;1.42;0.30;;;;;;;;;;4985904;28;20054;-73
2022/02/19 08:59:28;;;;;;;0.70;0.30;;;;;;;;;;4985752;28;20027;-74
2022/02/19 09:01:56;;;;;;;0.98;0.30;;;;;;;;;;4985635;28;20131;-75
2022/02/19 09:04:22;;;;;;;1.55;0.30;;;;;;;;;;4985754;28;20050;-74
2022/02/19 09:06:47;;;;;;;0.63;0.52;;;;;;;;;;4968354;28;20094;-74
2022/02/19 09:09:13;;;;;;;1.42;0.40;;;;;;;;;;4968041;28;20050;-74
2022/02/19 09:11:38;;;;;;;2.90;0.57;;;;;;;;;;4968392;28;20022;-73
2022/02/19 09:14:04;;;;;;;2.03;0.35;;;;;;;;;;4985858;28;20042;-73
2022/02/19 09:16:34;;;;;;;3.95;0.60;;;;;;;;;;4968285;28;20093;-74
2022/02/19 09:19:00;;;;;;;3.60;0.50;;;;;;;;;;4985510;28;20031;-75
2022/02/19 09:21:27;;;;;;;0.30;0.30;;;;;;;;;;4985311;28;20026;-74
2022/02/19 09:23:53;;;;;;;1.45;0.40;;;;;;;;;;4985491;28;20111;-74
2022/02/19 09:26:21;;;;;;;1.50;0.30;;;;;;;;;;4985480;28;20039;-75
2022/02/19 09:28:47;;;;;;;1.02;0.50;;;;;;;;;;4985475;28;20090;-75
2022/02/19 09:31:13;;;;;;;0.40;0.25;;;;;;;;;;4968019;28;20064;-75
2022/02/19 09:33:38;;;;;;;1.33;0.30;;;;;;;;;;4985367;28;20034;-74
2022/02/19 09:36:04;;;;;;;2.30;0.35;;;;;;;;;;4985369;28;20452;-74
2022/02/19 09:38:29;;;;;;;1.33;0.40;;;;;;;;;;4985384;28;20027;-74
2022/02/19 09:40:57;;;;;;;1.55;0.40;;;;;;;;;;4985154;28;20386;-73
2022/02/19 09:43:25;;;;;;;0.75;0.40;;;;;;;;;;4984435;28;20113;-74
2022/02/19 09:45:50;;;;;;;1.75;0.28;;;;;;;;;;4984968;28;20031;-75
2022/02/19 09:48:17;;;;;;;1.23;0.40;;;;;;;;;;4984964;28;20527;-75
2022/02/19 09:50:45;;;;;;;3.70;0.45;;;;;;;;;;4984920;28;20053;-74
2022/02/19 09:53:10;;;;;;;1.45;0.30;;;;;;;;;;4985058;28;20030;-75
2022/02/19 09:55:36;;;;;;;0.82;0.40;;;;;;;;;;4967502;28;20023;-74
2022/02/19 09:58:02;;;;;;;1.25;0.63;;;;;;;;;;4967457;28;20094;-74
2022/02/19 10:00:43;;;;;;;1.20;0.60;;;;;;;;;;4985139;28;20221;-74
2022/02/19 10:03:26;;;;;;;1.55;0.40;;;;;;;;;;4985107;28;20080;-75
2022/02/19 10:05:56;;;;;;;2.00;0.50;;;;;;;;;;4984845;28;20025;-74
2022/02/19 10:08:21;;;;;;;0.40;0.30;;;;;;;;;;4984820;28;20043;-73
2022/02/19 10:10:54;;;;;;;1.10;0.50;;;;;;;;;;4984486;28;20518;-73
2022/02/19 10:13:46;;;;;;;1.23;0.53;;;;;;;;;;4985075;28;20030;-74
2022/02/19 10:16:14;;;;;;;1.13;0.40;;;;;;;;;;4981835;28;20108;-74
2022/02/19 10:18:43;;;;;;;1.15;0.50;;;;;;;;;;4984786;28;20027;-74
2022/02/19 10:21:13;;;;;;;1.73;0.43;;;;;;;;;;4967335;28;20050;-74
2022/02/19 10:23:41;;;;;;;1.08;0.40;;;;;;;;;;4967468;28;20023;-74
2022/02/19 10:26:06;;;;;;;1.15;0.30;;;;;;;;;;4966687;28;20047;-74
2022/02/19 10:28:32;;;;;;;3.90;0.90;;;;;;;;;;4967196;28;20037;-73
2022/02/19 10:31:16;;;;;;;0.75;0.40;;;;;;;;;;4967233;28;20015;-74
2022/02/19 10:33:42;;;;;;;1.40;0.45;;;;;;;;;;4967121;28;20022;-74
2022/02/19 10:36:43;;;;;;;3.60;0.60;;;;;;;;;;4967059;28;20031;-73
2022/02/19 10:39:08;;;;;;;0.60;0.40;;;;;;;;;;4971175;28;20031;-73
2022/02/19 10:41:38;;;;;;;1.88;0.35;;;;;;;;;;4966957;28;20027;-74
2022/02/19 10:44:29;;;;;;;4.65;0.77;;;;;;;;;;4984962;28;20022;-74
2022/02/19 10:46:57;;;;;;;1.25;0.40;;;;;;;;;;4966909;28;20027;-74
2022/02/19 10:49:27;;;;;;;3.13;0.50;;;;;;;;;;4984570;28;20089;-73
2022/02/19 10:51:52;;;;;;;1.33;0.32;;;;;;;;;;4967048;28;20098;-73
2022/02/19 10:54:21;;;;;;;1.55;0.20;;;;;;;;;;4985191;28;20452;-73
2022/02/19 10:56:46;;;;;;;0.80;0.20;;;;;;;;;;4988159;28;20050;-73
2022/02/19 10:59:16;;;;;;;2.90;1.58;;;;;;;;;;4988320;28;20041;-73
2022/02/19 11:01:52;;;;;;;0.63;0.35;;;;;;;;;;4987788;28;20022;-73
2022/02/19 11:04:21;;;;;;;0.82;0.25;;;;;;;;;;4970626;28;20027;-74
2022/02/19 11:06:48;;;;;;;0.82;0.40;;;;;;;;;;4988041;28;20026;-74
2022/02/19 11:09:15;;;;;;;2.05;0.40;;;;;;;;;;4987814;28;20051;-75
2022/02/19 11:11:42;;;;;;;1.13;0.40;;;;;;;;;;4988073;28;20054;-74
2022/02/19 11:14:13;;;;;;;1.48;0.40;;;;;;;;;;4987923;28;20022;-73
2022/02/19 11:16:39;;;;;;;3.25;0.52;;;;;;;;;;4987676;28;20538;-74
2022/02/19 11:19:05;;;;;;;2.90;0.90;;;;;;;;;;4987604;28;20022;-74
2022/02/19 11:21:33;;;;;;;0.93;0.60;;;;;;;;;;4987589;28;20030;-74
2022/02/19 11:24:05;;;;;;;1.85;0.60;;;;;;;;;;4970081;28;20031;-74
2022/02/19 11:26:31;;;;;;;1.70;0.70;;;;;;;;;;4987674;28;20031;-74
2022/02/19 11:28:59;;;;;;;3.55;0.85;;;;;;;;;;4987580;28;20123;-74
2022/02/19 11:31:33;;;;;;;2.63;0.90;;;;;;;;;;4987633;28;20037;-74
2022/02/19 11:34:04;;;;;;;3.88;0.70;;;;;;;;;;4987652;28;20027;-75
2022/02/19 11:36:31;;;;;;;2.92;0.60;;;;;;;;;;4987389;28;20072;-75
2022/02/19 11:38:57;;;;;;;3.80;0.70;;;;;;;;;;4969966;28;20019;-74
2022/02/19 11:41:42;;;;;;;3.30;0.80;;;;;;;;;;4969963;28;20374;-75
2022/02/19 11:44:20;;;;;;;3.15;0.70;;;;;;;;;;4987485;28;20045;-74
2022/02/19 11:46:46;;;;;;;2.30;0.70;;;;;;;;;;4987113;28;20035;-75
2022/02/19 11:49:29;;;;;;;3.15;0.70;;;;;;;;;;4969895;28;20118;-75
2022/02/19 11:52:04;;;;;;;1.50;0.60;;;;;;;;;;4987119;28;20507;-74
2022/02/19 11:54:30;;;;;;;3.80;0.90;;;;;;;;;;4987359;28;20058;-74
2022/02/19 11:56:55;;;;;;;3.75;0.82;;;;;;;;;;4969620;28;20026;-72
2022/02/19 11:59:23;;;;;;;2.72;0.70;;;;;;;;;;4986502;28;20026;-72
2022/02/19 12:02:23;;;;;;;3.22;0.75;;;;;;;;;;4967376;28;20037;-73
2022/02/19 12:07:57;;;;;;;5.05;0.90;;;;;;;;;;4984005;28;20038;-73
2022/02/19 12:10:22;;;;;;;1.77;0.70;;;;;;;;;;4983768;28;20042;-74
2022/02/19 12:13:10;;;;;;;4.03;1.05;;;;;;;;;;4985078;28;20419;-74
2022/02/19 12:15:38;;;;;;;3.92;1.13;;;;;;;;;;4967086;28;20030;-74
2022/02/19 12:18:04;;;;;;;4.22;1.05;;;;;;;;;;4984088;28;20106;-74
2022/02/19 12:20:32;;;;;;;9.40;1.30;;;;;;;;;;4967835;28;20066;-74
2022/02/19 12:23:01;;;;;;;2.97;1.00;;;;;;;;;;4967493;28;20041;-75
2022/02/19 12:25:53;;;;;;;3.97;1.70;;;;;;;;;;4984506;28;20558;-75
2022/02/19 12:28:19;;;;;;;3.90;1.00;;;;;;;;;;4985261;28;20105;-75
2022/02/19 12:30:45;;;;;;;4.30;1.20;;;;;;;;;;4985138;28;20027;-75
2022/02/19 12:33:12;;;;;;;5.50;1.30;;;;;;;;;;4985866;28;20463;-76
2022/02/19 12:35:44;;;;;;;3.65;1.45;;;;;;;;;;4968024;28;20027;-75
2022/02/19 12:38:14;;;;;;;4.93;1.27;;;;;;;;;;4985295;28;20031;-76
2022/02/19 12:40:41;;;;;;;4.03;1.25;;;;;;;;;;4985803;28;20037;-74
2022/02/19 12:43:17;;;;;;;3.47;1.17;;;;;;;;;;4985458;28;20526;-75
2022/02/19 12:45:44;;;;;;;3.35;1.00;;;;;;;;;;4985203;28;20515;-74
2022/02/19 12:48:10;;;;;;;5.20;1.40;;;;;;;;;;4966197;28;20121;-75
2022/02/19 12:50:35;;;;;;;4.75;1.25;;;;;;;;;;4983854;28;20026;-75
2022/02/19 12:53:01;;;;;;;3.70;1.35;;;;;;;;;;4983405;28;20397;-75
2022/02/19 12:55:26;;;;;;;4.70;1.20;;;;;;;;;;4984257;28;20456;-75
2022/02/19 12:57:58;;;;;;;3.60;1.10;;;;;;;;;;4983915;28;20050;-75
2022/02/19 13:00:23;;;;;;;2.60;1.00;;;;;;;;;;4967136;28;20035;-75
2022/02/19 13:02:57;;;;;;;2.05;1.10;;;;;;;;;;4985221;28;20029;-75
2022/02/19 13:05:23;;;;;;;1.48;1.05;;;;;;;;;;4985048;28;20035;-75
2022/02/19 13:07:48;;;;;;;4.45;1.27;;;;;;;;;;4984374;28;20058;-74
2022/02/19 13:10:20;;;;;;;5.07;0.90;;;;;;;;;;4983692;28;20043;-75
2022/02/19 13:12:45;;;;;;;2.88;1.00;;;;;;;;;;4984163;28;20034;-72
2022/02/19 13:15:11;;;;;;;4.65;1.00;;;;;;;;;;4984639;28;20041;-73
2022/02/19 13:17:39;;;;;;;3.20;1.02;;;;;;;;;;4984071;28;20018;-74
2022/02/19 13:20:17;;;;;;;1.38;0.82;;;;;;;;;;4984437;28;20081;-73
2022/02/19 13:22:44;;;;;;;4.82;1.00;;;;;;;;;;4983866;28;20066;-74
2022/02/19 13:25:12;;;;;;;3.42;1.10;;;;;;;;;;4967004;28;20475;-73
2022/02/19 13:27:39;;;;;;;3.22;1.00;;;;;;;;;;4966789;28;20014;-73
2022/02/19 13:30:15;;;;;;;2.53;0.95;;;;;;;;;;4984210;28;20616;-73
2022/02/19 13:32:42;;;;;;;1.60;1.00;;;;;;;;;;4984442;28;20062;-74
2022/02/19 13:35:09;;;;;;;2.67;1.02;;;;;;;;;;4984445;28;20023;-74
2022/02/19 13:37:39;;;;;;;1.58;0.70;;;;;;;;;;4966459;28;20386;-73
2022/02/19 13:40:10;;;;;;;2.83;1.15;;;;;;;;;;4984009;28;20030;-74
2022/02/19 13:42:46;;;;;;;1.88;0.85;;;;;;;;;;4983547;28;20022;-74
2022/02/19 13:45:27;;;;;;;2.53;0.88;;;;;;;;;;4984153;28;20033;-74
2022/02/19 13:47:53;;;;;;;4.68;1.38;;;;;;;;;;4983683;28;20031;-73
2022/02/19 13:50:37;;;;;;;3.30;0.77;;;;;;;;;;4966338;28;20031;-74
2022/02/19 13:53:14;;;;;;;1.70;0.75;;;;;;;;;;4966258;28;20030;-74
2022/02/19 13:55:42;;;;;;;1.13;0.60;;;;;;;;;;4983656;28;20035;-73
2022/02/19 13:58:10;;;;;;;2.78;0.65;;;;;;;;;;4983244;28;20037;-74
2022/02/19 14:00:36;;;;;;;1.73;0.73;;;;;;;;;;4983570;28;20046;-74
2022/02/19 14:03:02;;;;;;;1.45;0.75;;;;;;;;;;4983817;28;20023;-74
2022/02/19 14:05:48;;;;;;;3.90;0.95;;;;;;;;;;4983941;28;20423;-74
2022/02/19 14:08:15;;;;;;;1.48;0.52;;;;;;;;;;4966141;28;20103;-73
2022/02/19 14:11:00;;;;;;;1.92;0.60;;;;;;;;;;4965941;28;20430;-73
2022/02/19 14:13:26;;;;;;;2.70;0.75;;;;;;;;;;4966013;28;20314;-74
2022/02/19 14:15:51;;;;;;;1.85;0.70;;;;;;;;;;4983752;28;20037;-73
2022/02/19 14:18:17;;;;;;;0.80;0.50;;;;;;;;;;4983728;28;20046;-74
2022/02/19 14:20:45;;;;;;;1.02;0.47;;;;;;;;;;4965984;28;20069;-73
2022/02/19 14:23:23;;;;;;;2.10;0.80;;;;;;;;;;4966304;28;20057;-74
2022/02/19 14:25:54;;;;;;;3.60;0.90;;;;;;;;;;4983626;28;20027;-73
2022/02/19 14:28:21;;;;;;;1.73;0.80;;;;;;;;;;4965991;28;20581;-73
2022/02/19 14:30:49;;;;;;;0.75;0.55;;;;;;;;;;4986593;28;20341;-73
2022/02/19 14:33:16;;;;;;;3.15;0.80;;;;;;;;;;4970299;28;20027;-73
2022/02/19 14:35:43;;;;;;;1.65;0.80;;;;;;;;;;4970087;28;20430;-73
2022/02/19 14:38:19;;;;;;;2.15;0.60;;;;;;;;;;4987073;28;20440;-74
2022/02/19 14:40:46;;;;;;;4.82;1.00;;;;;;;;;;4987498;28;20088;-74
2022/02/19 14:43:11;;;;;;;0.77;0.52;;;;;;;;;;4987707;28;20089;-73
2022/02/19 14:45:38;;;;;;;0.77;0.50;;;;;;;;;;4987336;28;20026;-74
2022/02/19 14:48:07;;;;;;;2.80;0.88;;;;;;;;;;4969561;28;20157;-73
2022/02/19 14:50:33;;;;;;;1.13;0.50;;;;;;;;;;4969774;28;20088;-74
2022/02/19 14:52:59;;;;;;;2.55;0.70;;;;;;;;;;4969572;28;20415;-74
2022/02/19 14:55:24;;;;;;;1.42;0.80;;;;;;;;;;4969896;28;20030;-74
2022/02/19 14:57:50;;;;;;;0.85;0.40;;;;;;;;;;4969439;28;20081;-73